Time;durP1;ratioP1;P1;durP2;ratioP2;P2;SDS_P1;SDS_P2;PMS_P1;PMS_P2;Temp;Humidity;BMP_temperature;BMP_pressure;BME280_temperature;BME280_humidity;BME280_pressure;Samples;Min_cycle;Max_cycle;Signal;HPM_P1;HPM_P2
2023/10/23 00:02:25;;;;;;;;;;;12.20;99.90;;;;;;5035333;28;19913;-67
2023/10/23 00:04:51;;;;;;;;;;;12.20;99.90;;;;;;5034645;28;20356;-67
2023/10/23 00:07:16;;;;;;;;;;;12.20;99.90;;;;;;5030395;28;19909;-68
2023/10/23 00:09:42;;;;;;;;;;;12.10;99.90;;;;;;5035170;28;19917;-67
2023/10/23 00:12:08;;;;;;;;;;;12.10;99.90;;;;;;5035888;28;19913;-67
2023/10/23 00:14:34;;;;;;;;;;;12.10;99.90;;;;;;5037034;28;19916;-68
2023/10/23 00:17:00;;;;;;;;;;;12.20;99.90;;;;;;5039317;28;19920;-68
2023/10/23 00:19:26;;;;;;;;;;;12.20;99.90;;;;;;5039024;28;19993;-68
2023/10/23 00:21:51;;;;;;;;;;;12.20;99.90;;;;;;5043955;28;20015;-67
2023/10/23 00:24:17;;;;;;;;;;;12.20;99.90;;;;;;5037627;28;20000;-67
2023/10/23 00:26:42;;;;;;;;;;;12.20;99.90;;;;;;5038522;28;20012;-67
2023/10/23 00:29:08;;;;;;;;;;;12.20;99.90;;;;;;5044051;28;20291;-69
2023/10/23 00:31:34;;;;;;;;;;;12.20;99.90;;;;;;5039921;28;19913;-68
2023/10/23 00:33:59;;;;;;;;;;;12.10;99.90;;;;;;5043043;28;19913;-68
2023/10/23 00:36:25;;;;;;;;;;;12.10;99.90;;;;;;5039589;28;19995;-68
2023/10/23 00:38:50;;;;;;;;;;;12.10;99.90;;;;;;5038878;28;20265;-68
2023/10/23 00:41:16;;;;;;;;;;;12.20;99.90;;;;;;5037842;28;20012;-67
2023/10/23 00:43:41;;;;;;;;;;;12.30;99.90;;;;;;5036897;28;20387;-68
2023/10/23 00:46:19;;;;;;;;;;;12.30;99.90;;;;;;5037596;28;19933;-68
2023/10/23 00:48:45;;;;;;;;;;;12.20;99.90;;;;;;5039260;28;20378;-69
2023/10/23 00:51:12;;;;;;;;;;;12.20;99.90;;;;;;5037369;28;20410;-69
2023/10/23 00:53:39;;;;;;;;;;;12.30;99.90;;;;;;5041097;28;19909;-67
2023/10/23 00:56:06;;;;;;;;;;;12.10;99.90;;;;;;5036448;28;20288;-67
2023/10/23 00:58:32;;;;;;;;;;;12.10;99.90;;;;;;5039650;28;20375;-69
2023/10/23 01:00:58;;;;;;;;;;;12.00;99.90;;;;;;5042797;28;19916;-67
2023/10/23 01:03:24;;;;;;;;;;;11.90;99.90;;;;;;5040048;28;19940;-68
2023/10/23 01:05:49;;;;;;;;;;;11.80;99.90;;;;;;5037717;28;19908;-67
2023/10/23 01:08:15;;;;;;;;;;;11.80;99.90;;;;;;5042618;28;19974;-67
2023/10/23 01:10:41;;;;;;;;;;;11.80;99.90;;;;;;5033400;28;20432;-68
2023/10/23 01:13:07;;;;;;;;;;;11.80;99.90;;;;;;5039718;28;19913;-67
2023/10/23 01:15:33;;;;;;;;;;;11.80;99.90;;;;;;5058366;28;19923;-67
2023/10/23 01:17:59;;;;;;;;;;;11.80;99.90;;;;;;5039792;28;19920;-68
2023/10/23 01:20:27;;;;;;;;;;;11.70;99.90;;;;;;5043085;28;19913;-67
2023/10/23 01:22:57;;;;;;;;;;;11.70;99.90;;;;;;5040298;28;19917;-67
2023/10/23 01:25:22;;;;;;;;;;;11.70;99.90;;;;;;5039676;28;20023;-67
2023/10/23 01:27:48;;;;;;;;;;;11.70;99.90;;;;;;5034010;28;20478;-67
2023/10/23 01:30:13;;;;;;;;;;;11.70;99.90;;;;;;5042261;28;21552;-68
2023/10/23 01:32:39;;;;;;;;;;;11.70;99.90;;;;;;5038258;28;20294;-68
2023/10/23 01:35:05;;;;;;;;;;;11.60;99.90;;;;;;5039044;28;20564;-68
2023/10/23 01:37:31;;;;;;;;;;;11.50;99.90;;;;;;5042027;28;19988;-67
2023/10/23 01:39:56;;;;;;;;;;;11.50;99.90;;;;;;5039540;28;20062;-67
2023/10/23 01:42:22;;;;;;;;;;;11.40;99.90;;;;;;5042581;28;19921;-67
2023/10/23 01:44:47;;;;;;;;;;;11.40;99.90;;;;;;5041524;28;19905;-67
2023/10/23 01:47:13;;;;;;;;;;;11.40;99.90;;;;;;5036831;28;19916;-67
2023/10/23 01:49:38;;;;;;;;;;;11.30;99.90;;;;;;5035714;28;19917;-67
2023/10/23 01:52:04;;;;;;;;;;;11.30;99.90;;;;;;5037081;28;19924;-67
2023/10/23 01:54:30;;;;;;;;;;;11.20;99.90;;;;;;5035815;28;19912;-69
2023/10/23 01:56:55;;;;;;;;;;;11.20;99.90;;;;;;5041464;28;19916;-68
2023/10/23 01:59:21;;;;;;;;;;;11.10;99.90;;;;;;5039687;28;20746;-69
2023/10/23 02:01:46;;;;;;;;;;;11.10;99.90;;;;;;5038667;28;19944;-69
2023/10/23 02:04:12;;;;;;;;;;;10.90;99.90;;;;;;5042284;28;20111;-67
2023/10/23 02:06:37;;;;;;;;;;;10.90;99.90;;;;;;5038193;28;19920;-68
2023/10/23 02:09:03;;;;;;;;;;;10.90;99.90;;;;;;5036273;28;20387;-68
2023/10/23 02:11:29;;;;;;;;;;;10.90;99.90;;;;;;5038651;28;20367;-68
2023/10/23 02:13:55;;;;;;;;;;;10.90;99.90;;;;;;5040259;28;19923;-67
2023/10/23 02:16:21;;;;;;;;;;;10.90;99.90;;;;;;5037224;28;20284;-67
2023/10/23 02:18:47;;;;;;;;;;;10.90;99.90;;;;;;5041299;28;19909;-67
2023/10/23 02:21:13;;;;;;;;;;;10.90;99.90;;;;;;5037871;28;19939;-66
2023/10/23 02:23:38;;;;;;;;;;;10.90;99.90;;;;;;5038329;28;19913;-68
2023/10/23 02:26:04;;;;;;;;;;;10.90;99.90;;;;;;5041315;28;20326;-69
2023/10/23 02:28:29;;;;;;;;;;;10.90;99.90;;;;;;5038926;28;19909;-66
2023/10/23 02:30:55;;;;;;;;;;;10.90;99.90;;;;;;5035517;28;19964;-67
2023/10/23 02:33:20;;;;;;;;;;;11.00;99.90;;;;;;5037911;28;19909;-69
2023/10/23 02:35:46;;;;;;;;;;;11.00;99.90;;;;;;5039803;28;19913;-68
2023/10/23 02:38:12;;;;;;;;;;;11.00;99.90;;;;;;5036612;28;19943;-67
2023/10/23 02:40:37;;;;;;;;;;;11.00;99.90;;;;;;5037441;28;19935;-67
2023/10/23 02:43:03;;;;;;;;;;;11.00;99.90;;;;;;5032312;28;20382;-67
2023/10/23 02:45:28;;;;;;;;;;;11.00;99.90;;;;;;5041396;28;19931;-68
2023/10/23 02:47:54;;;;;;;;;;;11.00;99.90;;;;;;5039302;28;19909;-67
2023/10/23 02:50:20;;;;;;;;;;;11.10;99.90;;;;;;5037368;28;20479;-67
2023/10/23 02:52:46;;;;;;;;;;;11.10;99.90;;;;;;5041001;28;20657;-67
2023/10/23 02:55:11;;;;;;;;;;;11.10;99.90;;;;;;5037268;28;19948;-67
2023/10/23 02:57:37;;;;;;;;;;;11.20;99.90;;;;;;5041980;28;20382;-67
2023/10/23 03:00:05;;;;;;;;;;;11.20;99.90;;;;;;5039346;28;19909;-68
2023/10/23 03:02:31;;;;;;;;;;;11.20;99.90;;;;;;5037199;28;19909;-67
2023/10/23 03:04:57;;;;;;;;;;;11.30;99.90;;;;;;5040170;28;19909;-68
2023/10/23 03:07:23;;;;;;;;;;;11.30;99.90;;;;;;5038725;28;19917;-68
2023/10/23 03:09:49;;;;;;;;;;;11.30;99.90;;;;;;5036530;28;19929;-67
2023/10/23 03:12:14;;;;;;;;;;;11.30;99.90;;;;;;5037101;28;20679;-67
2023/10/23 03:14:40;;;;;;;;;;;11.30;99.90;;;;;;5040314;28;19995;-67
2023/10/23 03:17:05;;;;;;;;;;;11.30;99.90;;;;;;5037695;28;20334;-67
2023/10/23 03:19:31;;;;;;;;;;;11.40;99.90;;;;;;5040889;28;19909;-67
2023/10/23 03:21:57;;;;;;;;;;;11.40;99.90;;;;;;5035975;28;19978;-68
2023/10/23 03:24:23;;;;;;;;;;;11.40;99.90;;;;;;5040384;28;21072;-68
2023/10/23 03:26:48;;;;;;;;;;;11.50;99.90;;;;;;5036684;28;19920;-67
2023/10/23 03:29:14;;;;;;;;;;;11.60;99.90;;;;;;5042020;28;19960;-67
2023/10/23 03:31:39;;;;;;;;;;;11.60;99.90;;;;;;5037514;28;20356;-68
2023/10/23 03:34:05;;;;;;;;;;;11.70;99.90;;;;;;5040448;28;19913;-69
2023/10/23 03:36:30;;;;;;;;;;;11.70;99.90;;;;;;5040947;28;20349;-68
2023/10/23 03:38:56;;;;;;;;;;;11.70;99.90;;;;;;5035863;28;19916;-67
2023/10/23 03:41:21;;;;;;;;;;;11.70;99.90;;;;;;5031807;28;22509;-67
2023/10/23 03:43:47;;;;;;;;;;;11.70;99.90;;;;;;5039644;28;19920;-68
2023/10/23 03:46:12;;;;;;;;;;;11.70;99.90;;;;;;5036731;28;20403;-67
2023/10/23 03:48:38;;;;;;;;;;;11.70;99.90;;;;;;5035335;28;19919;-67
2023/10/23 03:51:04;;;;;;;;;;;11.70;99.90;;;;;;5041076;28;19944;-67
2023/10/23 03:53:30;;;;;;;;;;;11.60;99.90;;;;;;5034362;28;20361;-68
2023/10/23 03:55:55;;;;;;;;;;;11.70;99.90;;;;;;5040645;28;19913;-68
2023/10/23 03:58:21;;;;;;;;;;;11.60;99.90;;;;;;5043611;28;19919;-67
2023/10/23 04:00:50;;;;;;;;;;;11.60;99.90;;;;;;5040941;28;19909;-68
2023/10/23 04:03:16;;;;;;;;;;;11.50;99.90;;;;;;5040828;28;20090;-68
2023/10/23 04:05:41;;;;;;;;;;;11.50;99.90;;;;;;5039775;28;19959;-68
2023/10/23 04:08:07;;;;;;;;;;;11.60;99.90;;;;;;5033675;28;20562;-68
2023/10/23 04:10:33;;;;;;;;;;;11.60;99.90;;;;;;5039854;28;20291;-67
2023/10/23 04:12:58;;;;;;;;;;;11.40;99.90;;;;;;5039985;28;19920;-67
2023/10/23 04:15:24;;;;;;;;;;;11.60;99.90;;;;;;5043885;28;19920;-67
2023/10/23 04:17:50;;;;;;;;;;;11.50;99.90;;;;;;5037950;28;19913;-69
2023/10/23 04:20:16;;;;;;;;;;;11.30;99.90;;;;;;5042686;28;19913;-68
2023/10/23 04:22:42;;;;;;;;;;;11.30;99.90;;;;;;5038803;28;19919;-68
2023/10/23 04:25:08;;;;;;;;;;;11.20;99.90;;;;;;5034481;28;20276;-67
2023/10/23 04:27:33;;;;;;;;;;;11.20;99.90;;;;;;5043513;28;19916;-68
2023/10/23 04:30:04;;;;;;;;;;;11.10;99.90;;;;;;5039465;28;19917;-68
2023/10/23 04:32:29;;;;;;;;;;;11.10;99.90;;;;;;5034728;28;19912;-69
2023/10/23 04:34:55;;;;;;;;;;;11.10;99.90;;;;;;5039531;28;19916;-69
2023/10/23 04:37:21;;;;;;;;;;;11.10;99.90;;;;;;5040034;28;20450;-67
2023/10/23 04:39:46;;;;;;;;;;;11.00;99.90;;;;;;5037951;28;19932;-68
2023/10/23 04:42:12;;;;;;;;;;;11.00;99.90;;;;;;5069319;28;19909;-69
2023/10/23 04:44:37;;;;;;;;;;;11.00;99.90;;;;;;5043195;28;19955;-69
2023/10/23 04:47:03;;;;;;;;;;;11.00;99.90;;;;;;5040006;28;19913;-68
2023/10/23 04:49:28;;;;;;;;;;;11.00;99.90;;;;;;5040343;28;20097;-69
2023/10/23 04:51:54;;;;;;;;;;;11.00;99.90;;;;;;5038419;28;20375;-70
2023/10/23 04:54:20;;;;;;;;;;;10.90;99.90;;;;;;5041275;28;19913;-70
2023/10/23 04:56:46;;;;;;;;;;;10.80;99.90;;;;;;5042887;28;19919;-70
2023/10/23 04:59:11;;;;;;;;;;;10.70;99.90;;;;;;5042678;28;19909;-68
2023/10/23 05:01:37;;;;;;;;;;;10.60;99.90;;;;;;5040383;28;20062;-69
2023/10/23 05:04:02;;;;;;;;;;;10.50;99.90;;;;;;5040997;28;19909;-65
2023/10/23 05:06:28;;;;;;;;;;;10.50;99.90;;;;;;5039466;28;20007;-67
2023/10/23 05:08:54;;;;;;;;;;;10.50;99.90;;;;;;5037483;28;19916;-68
2023/10/23 05:11:19;;;;;;;;;;;10.50;99.90;;;;;;5036330;28;20344;-68
2023/10/23 05:13:46;;;;;;;;;;;10.50;99.90;;;;;;5040307;28;20019;-69
2023/10/23 05:16:12;;;;;;;;;;;10.50;99.90;;;;;;5036860;28;19909;-68
2023/10/23 05:18:39;;;;;;;;;;;10.40;99.90;;;;;;5035506;28;19909;-68
2023/10/23 05:21:08;;;;;;;;;;;10.40;99.90;;;;;;5040857;28;20417;-68
2023/10/23 05:23:33;;;;;;;;;;;10.40;99.90;;;;;;5035552;28;19909;-67
2023/10/23 05:25:59;;;;;;;;;;;10.40;99.90;;;;;;5036102;28;19935;-69
2023/10/23 05:28:25;;;;;;;;;;;10.30;99.90;;;;;;5039092;28;20360;-69
2023/10/23 05:30:50;;;;;;;;;;;10.30;99.90;;;;;;5040232;28;19913;-68
2023/10/23 05:33:16;;;;;;;;;;;10.30;99.90;;;;;;5030190;28;20383;-68
2023/10/23 05:35:42;;;;;;;;;;;10.30;99.90;;;;;;5035730;28;19924;-68
2023/10/23 05:38:07;;;;;;;;;;;10.30;99.90;;;;;;5036135;28;19913;-69
2023/10/23 05:40:33;;;;;;;;;;;10.40;99.90;;;;;;5036452;28;19913;-68
2023/10/23 05:42:58;;;;;;;;;;;10.40;99.90;;;;;;5036351;28;20646;-69
2023/10/23 05:45:24;;;;;;;;;;;10.50;99.90;;;;;;5040070;28;20003;-68
2023/10/23 05:47:49;;;;;;;;;;;10.60;99.90;;;;;;5036318;28;19909;-68
2023/10/23 05:50:15;;;;;;;;;;;10.60;99.90;;;;;;5039925;28;20396;-69
2023/10/23 05:52:40;;;;;;;;;;;10.70;99.90;;;;;;5035502;28;20352;-68
2023/10/23 05:55:08;;;;;;;;;;;10.80;99.90;;;;;;5034213;28;19931;-68
2023/10/23 05:57:34;;;;;;;;;;;10.90;99.90;;;;;;5041233;28;19917;-67
2023/10/23 05:59:59;;;;;;;;;;;11.00;99.90;;;;;;5036876;28;19932;-69
2023/10/23 06:02:25;;;;;;;;;;;11.10;99.90;;;;;;5035601;28;19936;-69
2023/10/23 06:04:51;;;;;;;;;;;11.20;99.90;;;;;;5034304;28;20257;-68
2023/10/23 06:07:16;;;;;;;;;;;11.20;99.90;;;;;;5035269;28;19909;-68
2023/10/23 06:09:48;;;;;;;;;;;11.50;99.90;;;;;;5036870;28;19916;-69
2023/10/23 06:12:14;;;;;;;;;;;11.80;99.90;;;;;;5039729;28;19948;-68
2023/10/23 06:14:40;;;;;;;;;;;12.10;99.90;;;;;;5032686;28;19985;-69
2023/10/23 06:17:06;;;;;;;;;;;12.40;99.90;;;;;;5035705;28;20363;-68
2023/10/23 06:19:32;;;;;;;;;;;12.60;99.90;;;;;;5036369;28;20422;-69
2023/10/23 06:21:57;;;;;;;;;;;13.00;99.90;;;;;;5035077;28;19915;-69
2023/10/23 06:24:23;;;;;;;;;;;13.40;99.90;;;;;;5034678;28;19969;-69
2023/10/23 06:26:48;;;;;;;;;;;13.90;99.90;;;;;;5039347;28;20458;-68
2023/10/23 06:29:14;;;;;;;;;;;14.20;99.90;;;;;;5037264;28;19921;-69
2023/10/23 06:31:39;;;;;;;;;;;14.60;99.90;;;;;;5035230;28;19916;-68
2023/10/23 06:34:05;;;;;;;;;;;15.10;99.90;;;;;;5039160;28;20247;-68
2023/10/23 06:36:31;;;;;;;;;;;15.50;99.90;;;;;;5035507;28;19916;-68
2023/10/23 06:38:57;;;;;;;;;;;16.20;99.90;;;;;;5033980;28;19909;-68
2023/10/23 06:41:22;;;;;;;;;;;16.80;99.90;;;;;;5039938;28;19927;-69
2023/10/23 06:43:48;;;;;;;;;;;17.30;99.90;;;;;;5034789;28;19920;-69
2023/10/23 06:46:14;;;;;;;;;;;17.90;99.90;;;;;;5035936;28;19916;-69
2023/10/23 06:48:44;;;;;;;;;;;18.40;99.90;;;;;;5034023;28;19927;-69
2023/10/23 06:51:13;;;;;;;;;;;18.30;99.90;;;;;;5034473;28;19913;-68
2023/10/23 06:53:39;;;;;;;;;;;18.40;99.90;;;;;;5032758;28;19991;-69
2023/10/23 06:56:07;;;;;;;;;;;18.90;99.90;;;;;;5038566;28;19909;-69
2023/10/23 06:58:33;;;;;;;;;;;18.70;99.90;;;;;;5031338;28;20371;-70
2023/10/23 07:01:08;;;;;;;;;;;19.00;99.90;;;;;;5041326;28;19913;-68
2023/10/23 07:03:34;;;;;;;;;;;19.30;99.90;;;;;;5034605;28;19958;-68
2023/10/23 07:06:03;;;;;;;;;;;19.50;99.90;;;;;;5030448;28;19950;-69
2023/10/23 07:08:28;;;;;;;;;;;19.70;99.90;;;;;;5064269;28;19917;-68
2023/10/23 07:10:55;;;;;;;;;;;20.60;99.40;;;;;;5035787;28;20774;-70
2023/10/23 07:13:20;;;;;;;;;;;20.90;98.20;;;;;;5039607;28;19909;-69
2023/10/23 07:15:47;;;;;;;;;;;21.00;97.60;;;;;;5038324;28;20360;-70
2023/10/23 07:18:12;;;;;;;;;;;20.50;98.00;;;;;;5034491;28;19952;-69
2023/10/23 07:20:38;;;;;;;;;;;18.90;99.60;;;;;;5036708;28;19908;-69
2023/10/23 07:23:03;;;;;;;;;;;18.50;99.90;;;;;;5034343;28;19913;-69
2023/10/23 07:25:29;;;;;;;;;;;17.90;99.90;;;;;;5036156;28;19943;-70
2023/10/23 07:27:54;;;;;;;;;;;17.80;99.90;;;;;;5044317;28;19992;-70
2023/10/23 07:30:22;;;;;;;;;;;18.90;99.90;;;;;;5038993;28;20478;-70
2023/10/23 07:32:48;;;;;;;;;;;19.30;99.90;;;;;;5040081;28;20350;-69
2023/10/23 07:35:13;;;;;;;;;;;19.00;99.90;;;;;;5034653;28;19970;-70
2023/10/23 07:37:41;;;;;;;;;;;18.90;99.90;;;;;;5039350;28;20011;-71
2023/10/23 07:40:07;;;;;;;;;;;20.10;99.50;;;;;;5041651;28;20352;-70
2023/10/23 07:42:32;;;;;;;;;;;20.60;98.10;;;;;;5038047;28;19974;-70
2023/10/23 07:44:58;;;;;;;;;;;20.00;98.40;;;;;;5038418;28;19912;-69
2023/10/23 07:47:24;;;;;;;;;;;19.50;99.30;;;;;;5037446;28;19983;-70
2023/10/23 07:49:50;;;;;;;;;;;19.60;99.50;;;;;;5038037;28;20411;-69
2023/10/23 07:52:15;;;;;;;;;;;20.70;98.30;;;;;;5035755;28;19919;-69
2023/10/23 07:54:41;;;;;;;;;;;21.00;97.50;;;;;;5041310;28;19974;-69
2023/10/23 07:57:06;;;;;;;;;;;20.70;97.70;;;;;;5038193;28;19996;-70
2023/10/23 07:59:32;;;;;;;;;;;21.50;96.50;;;;;;5042457;28;19916;-72
2023/10/23 08:01:58;;;;;;;;;;;21.80;95.80;;;;;;5035782;28;19913;-70
2023/10/23 08:04:23;;;;;;;;;;;22.50;95.10;;;;;;5038432;28;19913;-69
2023/10/23 08:06:49;;;;;;;;;;;21.90;94.80;;;;;;5037366;28;19944;-70
2023/10/23 08:09:14;;;;;;;;;;;21.80;95.80;;;;;;5043418;28;20491;-71
2023/10/23 08:11:40;;;;;;;;;;;22.80;94.50;;;;;;5037012;28;19909;-70
2023/10/23 08:14:05;;;;;;;;;;;24.00;92.90;;;;;;5037131;28;20437;-65
2023/10/23 08:16:31;;;;;;;;;;;24.80;91.40;;;;;;5069982;28;19947;-65
2023/10/23 08:18:57;;;;;;;;;;;24.50;91.10;;;;;;5039480;28;20311;-65
2023/10/23 08:21:23;;;;;;;;;;;24.80;91.00;;;;;;5037354;28;21283;-66
2023/10/23 08:23:54;;;;;;;;;;;24.20;90.80;;;;;;5037492;28;19909;-66
2023/10/23 08:26:22;;;;;;;;;;;24.80;90.50;;;;;;5037755;28;20369;-66
2023/10/23 08:28:48;;;;;;;;;;;24.80;90.00;;;;;;5037899;28;20201;-65
2023/10/23 08:31:14;;;;;;;;;;;25.30;88.90;;;;;;5038457;28;20363;-64
2023/10/23 08:33:40;;;;;;;;;;;23.90;90.50;;;;;;5034878;28;19912;-64
2023/10/23 08:36:05;;;;;;;;;;;23.00;91.50;;;;;;5035816;28;20344;-65
2023/10/23 08:38:31;;;;;;;;;;;23.60;91.10;;;;;;5036499;28;19916;-65
2023/10/23 08:40:56;;;;;;;;;;;22.80;91.70;;;;;;5042171;28;20347;-65
2023/10/23 08:43:22;;;;;;;;;;;23.70;91.30;;;;;;5036889;28;19917;-65
2023/10/23 08:45:50;;;;;;;;;;;24.70;90.50;;;;;;5042138;28;20356;-64
2023/10/23 08:48:15;;;;;;;;;;;24.60;90.00;;;;;;5038987;28;19995;-64
2023/10/23 08:50:43;;;;;;;;;;;24.00;90.10;;;;;;5038636;28;20020;-64
2023/10/23 08:53:10;;;;;;;;;;;23.60;90.40;;;;;;5038340;28;19913;-64
2023/10/23 08:55:36;;;;;;;;;;;22.70;91.50;;;;;;5037951;28;19913;-64
2023/10/23 08:58:03;;;;;;;;;;;23.90;91.00;;;;;;5038539;28;19913;-65
2023/10/23 09:00:29;;;;;;;;;;;25.30;89.40;;;;;;5042611;28;19917;-64
2023/10/23 09:02:55;;;;;;;;;;;25.70;87.50;;;;;;5034207;28;20386;-65
2023/10/23 09:05:20;;;;;;;;;;;25.70;87.00;;;;;;5036284;28;19913;-65
2023/10/23 09:07:46;;;;;;;;;;;26.50;85.60;;;;;;5037071;28;19941;-65
2023/10/23 09:10:12;;;;;;;;;;;27.20;84.30;;;;;;5037695;28;19927;-65
2023/10/23 09:12:39;;;;;;;;;;;25.30;84.40;;;;;;5040686;28;19917;-64
2023/10/23 09:15:15;;;;;;;;;;;25.50;85.40;;;;;;5038390;28;19916;-65
2023/10/23 09:17:41;;;;;;;;;;;25.40;84.80;;;;;;5040041;28;20458;-65
2023/10/23 09:20:26;;;;;;;;;;;24.90;86.30;;;;;;5039710;28;19995;-65
2023/10/23 09:22:53;;;;;;;;;;;24.00;86.60;;;;;;5036449;28;20895;-65
2023/10/23 09:25:20;;;;;;;;;;;23.90;88.90;;;;;;5033146;28;20617;-64
2023/10/23 09:27:45;;;;;;;;;;;25.10;87.30;;;;;;5042778;28;19916;-64
2023/10/23 09:30:13;;;;;;;;;;;24.60;86.70;;;;;;5035261;28;19920;-64
2023/10/23 09:32:39;;;;;;;;;;;24.60;87.80;;;;;;5037576;28;20364;-65
2023/10/23 09:35:05;;;;;;;;;;;24.60;87.60;;;;;;5051354;28;19909;-64
2023/10/23 09:37:31;;;;;;;;;;;25.30;87.30;;;;;;5037276;28;19923;-65
2023/10/23 09:40:04;;;;;;;;;;;26.70;84.70;;;;;;5052458;28;19916;-68
2023/10/23 09:42:31;;;;;;;;;;;27.00;83.30;;;;;;5034920;28;19920;-69
2023/10/23 09:44:57;;;;;;;;;;;25.50;84.10;;;;;;5035028;28;19909;-69
2023/10/23 09:47:23;;;;;;;;;;;24.70;86.30;;;;;;5040033;28;19917;-70
2023/10/23 09:49:50;;;;;;;;;;;26.20;84.90;;;;;;5036147;28;19916;-70
2023/10/23 09:52:17;;;;;;;;;;;27.40;82.10;;;;;;5034823;28;19909;-70
2023/10/23 09:54:44;;;;;;;;;;;27.90;80.80;;;;;;5035856;28;19917;-70
2023/10/23 09:57:13;;;;;;;;;;;28.40;80.00;;;;;;5039362;28;19930;-70
2023/10/23 09:59:42;;;;;;;;;;;29.10;79.10;;;;;;5034448;28;19960;-70
2023/10/23 10:02:09;;;;;;;;;;;29.10;77.40;;;;;;5039119;28;19912;-70
2023/10/23 10:04:50;;;;;;;;;;;28.50;77.90;;;;;;5037991;28;19924;-70
2023/10/23 10:07:21;;;;;;;;;;;29.10;77.00;;;;;;5035709;28;19920;-71
2023/10/23 10:09:47;;;;;;;;;;;30.10;74.90;;;;;;5038863;28;19997;-70
2023/10/23 10:12:13;;;;;;;;;;;30.40;73.70;;;;;;5039674;28;19916;-70
2023/10/23 10:14:40;;;;;;;;;;;29.90;73.60;;;;;;5038534;28;19909;-70
2023/10/23 10:17:06;;;;;;;;;;;27.00;76.30;;;;;;5032163;28;20257;-70
2023/10/23 10:19:33;;;;;;;;;;;24.30;80.10;;;;;;5039755;28;19913;-71
2023/10/23 10:21:58;;;;;;;;;;;24.70;82.70;;;;;;5033841;28;19909;-70
2023/10/23 10:24:24;;;;;;;;;;;25.90;81.80;;;;;;5033949;28;20314;-71
2023/10/23 10:26:50;;;;;;;;;;;26.00;80.00;;;;;;5030571;28;20719;-70
2023/10/23 10:29:16;;;;;;;;;;;24.90;81.70;;;;;;5035795;28;19920;-72
2023/10/23 10:32:02;;;;;;;;;;;25.80;82.00;;;;;;5039616;28;19909;-71
2023/10/23 10:34:27;;;;;;;;;;;27.60;78.90;;;;;;5035437;28;20406;-71
2023/10/23 10:36:53;;;;;;;;;;;28.20;76.70;;;;;;5035660;28;20007;-70
2023/10/23 10:39:19;;;;;;;;;;;27.40;77.50;;;;;;5031736;28;19913;-70
2023/10/23 10:41:44;;;;;;;;;;;27.10;78.10;;;;;;5039366;28;19919;-70
2023/10/23 10:44:10;;;;;;;;;;;27.10;78.30;;;;;;5037043;28;20553;-71
2023/10/23 10:46:39;;;;;;;;;;;26.80;78.40;;;;;;5031981;28;19920;-70
2023/10/23 10:49:05;;;;;;;;;;;25.00;80.70;;;;;;5035737;28;20363;-70
2023/10/23 10:51:31;;;;;;;;;;;23.50;83.40;;;;;;5037164;28;20379;-70
2023/10/23 10:54:06;;;;;;;;;;;22.10;86.90;;;;;;5035345;28;19912;-70
2023/10/23 10:56:32;;;;;;;;;;;21.70;88.90;;;;;;5036027;28;19939;-70
2023/10/23 10:59:01;;;;;;;;;;;21.20;90.20;;;;;;5037654;28;19913;-70
2023/10/23 11:01:27;;;;;;;;;;;21.00;91.00;;;;;;5038604;28;20335;-69
2023/10/23 11:03:52;;;;;;;;;;;21.00;91.10;;;;;;5031751;28;20027;-70
2023/10/23 11:06:18;;;;;;;;;;;20.40;91.50;;;;;;5036169;28;19909;-70
2023/10/23 11:08:45;;;;;;;;;;;19.90;92.50;;;;;;5035444;28;20449;-71
2023/10/23 11:11:13;;;;;;;;;;;19.70;93.50;;;;;;5033453;28;20249;-71
2023/10/23 11:13:40;;;;;;;;;;;19.60;93.90;;;;;;5031124;28;19958;-71
2023/10/23 11:16:05;;;;;;;;;;;19.50;94.40;;;;;;5033956;28;19917;-70
2023/10/23 11:18:31;;;;;;;;;;;19.80;95.00;;;;;;5037085;28;20038;-71
2023/10/23 11:21:00;;;;;;;;;;;19.80;94.40;;;;;;5035198;28;19935;-71
2023/10/23 11:23:29;;;;;;;;;;;19.80;94.60;;;;;;5034584;28;20735;-71
2023/10/23 11:25:55;;;;;;;;;;;19.50;95.30;;;;;;5029395;28;19913;-70
2023/10/23 11:28:21;;;;;;;;;;;19.30;95.60;;;;;;5035664;28;20339;-71
2023/10/23 11:30:49;;;;;;;;;;;19.30;96.00;;;;;;5037474;28;19923;-71
2023/10/23 11:33:16;;;;;;;;;;;19.40;96.10;;;;;;5033406;28;20287;-71
2023/10/23 11:35:42;;;;;;;;;;;19.70;95.70;;;;;;5036662;28;20307;-71
2023/10/23 11:38:12;;;;;;;;;;;19.70;95.70;;;;;;5068817;28;19920;-70
2023/10/23 11:40:37;;;;;;;;;;;19.50;95.90;;;;;;5034766;28;19924;-70
2023/10/23 11:43:03;;;;;;;;;;;19.70;95.60;;;;;;5034083;28;19913;-71
2023/10/23 11:45:29;;;;;;;;;;;19.70;94.30;;;;;;5036336;28;19920;-70
2023/10/23 11:47:55;;;;;;;;;;;19.40;94.40;;;;;;5036870;28;19917;-72
2023/10/23 11:50:21;;;;;;;;;;;19.30;95.00;;;;;;5038824;28;20326;-70
2023/10/23 11:52:47;;;;;;;;;;;19.30;94.70;;;;;;5033827;28;19909;-71
2023/10/23 11:55:16;;;;;;;;;;;19.30;94.80;;;;;;5032914;28;19913;-71
2023/10/23 11:57:46;;;;;;;;;;;19.20;95.40;;;;;;5039742;28;20525;-70
2023/10/23 12:00:12;;;;;;;;;;;19.20;94.90;;;;;;5033052;28;19974;-70
2023/10/23 12:02:39;;;;;;;;;;;19.40;94.80;;;;;;5034744;28;19913;-70
2023/10/23 12:05:06;;;;;;;;;;;19.20;94.80;;;;;;5033972;28;20395;-71
2023/10/23 12:07:32;;;;;;;;;;;19.20;95.00;;;;;;5034585;28;20447;-70
2023/10/23 12:09:57;;;;;;;;;;;19.30;95.30;;;;;;5034965;28;19978;-70
2023/10/23 12:12:23;;;;;;;;;;;19.40;95.30;;;;;;5033988;28;19975;-71
2023/10/23 12:14:48;;;;;;;;;;;19.40;95.80;;;;;;5039372;28;20397;-70
2023/10/23 12:17:14;;;;;;;;;;;19.50;95.80;;;;;;5042000;28;20609;-70
2023/10/23 12:19:40;;;;;;;;;;;19.40;96.20;;;;;;5034718;28;19943;-71
2023/10/23 12:22:05;;;;;;;;;;;19.40;95.80;;;;;;5038590;28;19920;-71
2023/10/23 12:24:31;;;;;;;;;;;19.00;96.40;;;;;;5042169;28;19913;-70
2023/10/23 12:26:56;;;;;;;;;;;19.00;96.80;;;;;;5039488;28;19917;-71
2023/10/23 12:29:22;;;;;;;;;;;19.00;97.10;;;;;;5076106;28;19920;-71
2023/10/23 12:31:47;;;;;;;;;;;19.10;96.60;;;;;;5037841;28;19909;-69
2023/10/23 12:34:13;;;;;;;;;;;19.20;96.60;;;;;;5036443;28;19917;-71
2023/10/23 12:36:38;;;;;;;;;;;18.90;96.60;;;;;;5038167;28;19959;-73
2023/10/23 12:39:06;;;;;;;;;;;18.70;96.50;;;;;;5039454;28;19925;-71
2023/10/23 12:41:32;;;;;;;;;;;18.70;97.00;;;;;;5044908;28;20003;-71
2023/10/23 12:43:58;;;;;;;;;;;18.70;97.30;;;;;;5038517;28;19967;-72
2023/10/23 12:46:23;;;;;;;;;;;18.80;97.40;;;;;;5037802;28;19948;-72
2023/10/23 12:48:49;;;;;;;;;;;18.80;97.70;;;;;;5069302;28;19909;-71
2023/10/23 12:51:14;;;;;;;;;;;18.90;97.50;;;;;;5037611;28;20308;-71
2023/10/23 12:53:40;;;;;;;;;;;19.10;97.70;;;;;;5038750;28;19913;-71
2023/10/23 12:56:06;;;;;;;;;;;19.20;97.30;;;;;;5038128;28;19919;-71
2023/10/23 12:58:33;;;;;;;;;;;19.40;97.30;;;;;;5038847;28;19919;-72
2023/10/23 13:01:00;;;;;;;;;;;19.20;97.20;;;;;;5037884;28;19983;-72
2023/10/23 13:03:25;;;;;;;;;;;19.10;97.60;;;;;;5038654;28;19944;-71
2023/10/23 13:05:51;;;;;;;;;;;19.10;98.10;;;;;;5037770;28;19982;-71
2023/10/23 13:08:16;;;;;;;;;;;19.00;98.60;;;;;;5042261;28;19920;-71
2023/10/23 13:10:43;;;;;;;;;;;18.90;99.10;;;;;;5037916;28;19920;-71
2023/10/23 13:13:08;;;;;;;;;;;18.80;99.90;;;;;;5036925;28;19936;-72
2023/10/23 13:15:34;;;;;;;;;;;18.70;99.90;;;;;;5038611;28;19913;-72
2023/10/23 13:18:01;;;;;;;;;;;18.80;99.90;;;;;;5037940;28;19916;-71
2023/10/23 13:20:27;;;;;;;;;;;18.50;99.90;;;;;;5032387;28;20358;-72
2023/10/23 13:22:52;;;;;;;;;;;18.40;99.90;;;;;;5068183;28;19921;-69
2023/10/23 13:25:18;;;;;;;;;;;18.30;99.90;;;;;;5040250;28;19916;-70
2023/10/23 13:27:44;;;;;;;;;;;18.20;99.90;;;;;;5037485;28;20664;-71
2023/10/23 13:30:10;;;;;;;;;;;18.10;99.90;;;;;;5034732;28;19923;-71
2023/10/23 13:32:37;;;;;;;;;;;18.00;99.90;;;;;;5038677;28;19913;-70
2023/10/23 13:35:04;;;;;;;;;;;17.90;99.90;;;;;;5034909;28;19966;-71
2023/10/23 13:37:30;;;;;;;;;;;17.90;99.90;;;;;;5037333;28;19917;-71
2023/10/23 13:39:56;;;;;;;;;;;17.90;99.90;;;;;;5038490;28;20362;-70
2023/10/23 13:42:22;;;;;;;;;;;17.80;99.90;;;;;;5037283;28;20047;-71
2023/10/23 13:44:47;;;;;;;;;;;17.70;99.90;;;;;;5040471;28;19935;-72
2023/10/23 13:47:16;;;;;;;;;;;17.50;99.90;;;;;;5033348;28;20229;-69
2023/10/23 13:49:42;;;;;;;;;;;17.30;99.90;;;;;;5040011;28;19913;-69
2023/10/23 13:52:07;;;;;;;;;;;17.30;99.90;;;;;;5035552;28;19955;-70
2023/10/23 13:54:33;;;;;;;;;;;17.30;99.90;;;;;;5040137;28;19909;-70
2023/10/23 13:56:59;;;;;;;;;;;17.20;99.90;;;;;;5034963;28;19912;-71
2023/10/23 13:59:25;;;;;;;;;;;17.00;99.90;;;;;;5036268;28;19912;-71
2023/10/23 14:01:50;;;;;;;;;;;16.90;99.90;;;;;;5041436;28;19909;-69
2023/10/23 14:04:16;;;;;;;;;;;16.90;99.90;;;;;;5037316;28;20016;-70
2023/10/23 14:06:41;;;;;;;;;;;16.90;99.90;;;;;;5037994;28;19908;-70
2023/10/23 14:09:08;;;;;;;;;;;16.80;99.90;;;;;;5035736;28;19917;-69
2023/10/23 14:11:33;;;;;;;;;;;16.80;99.90;;;;;;5033943;28;19909;-71